Norfolk, Virginia
Traffic Map
Current Weather Conditions
Norfolk, Virginia
Clear
Clear
47°
Feels Like: 44°
Wind Chill: 44° Ceiling: Unl
Heat Index: 47° Visibility: 10mi
Dew Point: 28° Wind: 6mph
Humidity: 48% Direction: 200° (SSW)
Pressure: 30.26in Gusts: 0mph
Raw Report DataKORF 171551Z 20005KT 10SM CLR 08/M02 A3026 RMK AO2 SLP246 T00831022
Traffic Incident Summary
Active as of:
Severity:
Category:
InformationThere was an issue retrieving the traffic information for this location. Please try a different location or try again shortly.
Advertisements